Stonewall, TX (78671)

7:32 AM CST on February 14, 2016 (GMT -0600)
Cavecreek Community | | Change Station
CLOSE
Current Station
Personal Weather Station
Location: Fredericksburg, TX
Elevation: 1657 ft
Nearby Weather Stations

Elev 1657 ft 30.28 °N, 98.71 °W | Updated 17 seconds ago

Overcast
Overcast
57.9 °F
Feels Like 57.9 °F
N
1.8
Wind Variable Wind from South
Gusts 2.5 mph

Today
High -- | Low -- °F
--% Chance of Precip.
Yesterday
High -- | Low -- °F
Precip. -- in
Pressure 30.01 in
Visibility 10.0 miles
Clouds Overcast 1000 ft
Dew Point 54 °F
Humidity 87%
Rainfall 0.00 in
Snow Depth Not available.
7:15 AM 6:22 PM
Waxing Crescent, 41% visible
METAR KT82 141315Z AUTO 20013G18KT 10SM OVC010 13/11 A3001 RMK AO2 T01340110
Pressure 30.01 in
Visibility 10.0 miles
Clouds Overcast 1000 ft
Dew Point 54 °F
Humidity 87%
Rainfall 0.00 in
Snow Depth Not available.
7:15 AM 6:22 PM
Waxing Crescent, 41% visible
METAR KT82 141315Z AUTO 20013G18KT 10SM OVC010 13/11 A3001 RMK AO2 T01340110

10-Day Weather Forecast

Almanac

Astronomy

Feb. 14, 2016 Rise Set
Actual Time
Civil Twilight
Nautical Twilight
Astronomical Twilight
Moon
Length of Visible Light
Length of Day
Tomorrow will be .
, % of the Moon is Illuminated

Today's Extremes

State Highs State Lows

Community

WunderPhotos

Upload Photos

1,892,790 photos uploaded!

WunderBlog® & News

Nearby

Air Quality

  Air Quality AQ Index Pollutant
Not available.

Snow Depth

Station Depth Elevation

Earthquake Activity

City Distance Mag. Time & Date
Minimum magnitude displayed is 2.5.

Coastal Water Temperatures

Place Temperature

Stations

Nearby Weather Stations

Station Location Temp. Windchill Dew Point Humidity Wind Precip. Elev Updated Type
                   

Watches & Warnings

There are currently no watches in effect.